Time;durP1;ratioP1;P1;durP2;ratioP2;P2;SDS_P1;SDS_P2;PMS_P1;PMS_P2;Temp;Humidity;BMP_temperature;BMP_pressure;BME280_temperature;BME280_humidity;BME280_pressure;Samples;Min_cycle;Max_cycle;Signal;HPM_P1;HPM_P2
2022/08/08 00:01:56;;;;;;;3.93;3.10;;;;;;;;;;5034749;28;20183;-68
2022/08/08 00:04:22;;;;;;;4.83;3.90;;;;;;;;;;5035869;28;20221;-67
2022/08/08 00:06:52;;;;;;;4.77;3.00;;;;;;;;;;5034821;28;20277;-67
2022/08/08 00:09:25;;;;;;;3.03;2.83;;;;;;;;;;5034438;28;20298;-67
2022/08/08 00:11:55;;;;;;;3.87;3.47;;;;;;;;;;5035785;28;20163;-67
2022/08/08 00:14:39;;;;;;;3.47;3.10;;;;;;;;;;5034426;28;20286;-68
2022/08/08 00:17:09;;;;;;;4.37;3.43;;;;;;;;;;5035937;28;20156;-68
2022/08/08 00:19:41;;;;;;;4.77;3.37;;;;;;;;;;5035873;28;20596;-67
2022/08/08 00:22:16;;;;;;;5.33;3.37;;;;;;;;;;5034167;28;20178;-66
2022/08/08 00:24:45;;;;;;;3.57;3.27;;;;;;;;;;5034296;28;20191;-67
2022/08/08 00:27:12;;;;;;;5.87;3.80;;;;;;;;;;5035887;28;20206;-68
2022/08/08 00:29:40;;;;;;;5.23;3.13;;;;;;;;;;5035399;28;20289;-67
2022/08/08 00:32:11;;;;;;;4.27;3.60;;;;;;;;;;5036052;28;20540;-67
2022/08/08 00:37:40;;;;;;;4.27;3.30;;;;;;;;;;5035366;28;20206;-68
2022/08/08 00:40:20;;;;;;;4.53;3.53;;;;;;;;;;5035476;28;20210;-67
2022/08/08 00:42:46;;;;;;;4.93;3.70;;;;;;;;;;5035570;28;20281;-69
2022/08/08 00:45:21;;;;;;;5.07;3.50;;;;;;;;;;5035223;28;20179;-66
2022/08/08 00:48:04;;;;;;;4.30;3.73;;;;;;;;;;5033869;28;20183;-67
2022/08/08 00:50:42;;;;;;;4.90;3.57;;;;;;;;;;5035069;28;20257;-67
2022/08/08 00:53:14;;;;;;;6.40;3.70;;;;;;;;;;5033732;28;20206;-67
2022/08/08 00:55:50;;;;;;;4.30;3.43;;;;;;;;;;5035342;28;20517;-67
2022/08/08 00:58:19;;;;;;;6.20;3.93;;;;;;;;;;5034988;28;20182;-67
2022/08/08 01:01:02;;;;;;;5.03;3.87;;;;;;;;;;5035001;28;20644;-67
2022/08/08 01:03:40;;;;;;;5.77;3.87;;;;;;;;;;5032913;28;20246;-67
2022/08/08 01:06:06;;;;;;;6.30;3.80;;;;;;;;;;5033424;28;20179;-67
2022/08/08 01:08:51;;;;;;;4.20;3.73;;;;;;;;;;5035013;28;20186;-67
2022/08/08 01:11:26;;;;;;;4.90;3.70;;;;;;;;;;5033220;28;20215;-68
2022/08/08 01:14:04;;;;;;;6.17;4.27;;;;;;;;;;5033429;28;20671;-67
2022/08/08 01:16:45;;;;;;;6.23;3.97;;;;;;;;;;5033514;28;20639;-68
2022/08/08 01:19:29;;;;;;;5.60;3.93;;;;;;;;;;5033448;28;20171;-68
2022/08/08 01:22:14;;;;;;;6.17;4.43;;;;;;;;;;5033286;28;20274;-68
2022/08/08 01:24:52;;;;;;;4.47;3.60;;;;;;;;;;5033266;28;20240;-68
2022/08/08 01:27:18;;;;;;;5.67;4.17;;;;;;;;;;5034675;28;20171;-68
2022/08/08 01:30:03;;;;;;;4.70;4.03;;;;;;;;;;5034579;28;20571;-68
2022/08/08 01:32:49;;;;;;;7.93;3.80;;;;;;;;;;5034556;28;20195;-68
2022/08/08 01:35:18;;;;;;;7.87;4.17;;;;;;;;;;5003271;28;20685;-68
2022/08/08 01:38:03;;;;;;;5.27;4.40;;;;;;;;;;5032889;28;20215;-68
2022/08/08 01:40:52;;;;;;;7.37;4.23;;;;;;;;;;5034146;28;20202;-67
2022/08/08 01:43:39;;;;;;;6.60;3.97;;;;;;;;;;5025384;28;20241;-67
2022/08/08 01:46:04;;;;;;;7.80;5.00;;;;;;;;;;5034647;28;20174;-67
2022/08/08 01:48:43;;;;;;;8.90;4.60;;;;;;;;;;5034170;28;20205;-67
2022/08/08 01:51:19;;;;;;;4.90;4.30;;;;;;;;;;5032794;28;20206;-67
2022/08/08 01:53:57;;;;;;;6.73;4.57;;;;;;;;;;5033860;28;20198;-67
2022/08/08 01:56:23;;;;;;;;;;;;;;;;;;5032839;28;20274;-68
2022/08/08 01:58:49;;;;;;;;;;;;;;;;;;5032924;28;20369;-67
2022/08/08 02:01:15;;;;;;;5.57;4.63;;;;;;;;;;5034086;28;19905;-67
2022/08/08 02:03:57;;;;;;;8.60;4.90;;;;;;;;;;5033603;28;20218;-68
2022/08/08 02:06:23;;;;;;;6.27;4.53;;;;;;;;;;5032365;28;20228;-68
2022/08/08 02:08:55;;;;;;;6.10;5.03;;;;;;;;;;5032334;28;20595;-69
2022/08/08 02:11:30;;;;;;;5.00;4.53;;;;;;;;;;5033494;28;20675;-68
2022/08/08 02:14:04;;;;;;;8.43;4.93;;;;;;;;;;5033479;28;20199;-68
2022/08/08 02:16:35;;;;;;;5.33;4.70;;;;;;;;;;5032644;28;20183;-67
2022/08/08 02:19:40;;;;;;;5.33;4.80;;;;;;;;;;5033494;28;20198;-69
2022/08/08 02:22:31;;;;;;;7.13;5.07;;;;;;;;;;4975629;28;20208;-68
2022/08/08 02:24:57;;;;;;;6.40;5.50;;;;;;;;;;4975773;28;20192;-68
2022/08/08 02:27:32;;;;;;;6.40;5.57;;;;;;;;;;5018620;28;20286;-68
2022/08/08 02:30:13;;;;;;;8.00;5.47;;;;;;;;;;5032116;28;20225;-68
2022/08/08 02:32:58;;;;;;;6.13;4.90;;;;;;;;;;5033275;28;20226;-68
2022/08/08 02:35:26;;;;;;;6.67;5.43;;;;;;;;;;5033236;28;20545;-67
2022/08/08 02:38:04;;;;;;;8.47;4.43;;;;;;;;;;5031830;28;20185;-68
2022/08/08 02:40:33;;;;;;;5.37;4.87;;;;;;;;;;5033304;28;20190;-68
2022/08/08 02:43:18;;;;;;;9.38;5.20;;;;;;;;;;5031830;28;20204;-67
2022/08/08 02:45:59;;;;;;;8.53;5.67;;;;;;;;;;5032955;28;20263;-68
2022/08/08 02:48:44;;;;;;;7.67;5.30;;;;;;;;;;5032958;28;20206;-67
2022/08/08 02:51:34;;;;;;;8.27;5.80;;;;;;;;;;5032877;28;20210;-68
2022/08/08 02:54:14;;;;;;;7.30;6.20;;;;;;;;;;5032932;28;20195;-68
2022/08/08 02:57:09;;;;;;;9.40;5.67;;;;;;;;;;5033328;28;20619;-68
2022/08/08 02:59:56;;;;;;;7.63;5.80;;;;;;;;;;5023965;28;20562;-68
2022/08/08 03:02:46;;;;;;;7.13;5.87;;;;;;;;;;5032642;28;20569;-68
2022/08/08 03:05:31;;;;;;;8.43;5.90;;;;;;;;;;5033279;28;20174;-68
2022/08/08 03:08:05;;;;;;;8.80;5.93;;;;;;;;;;5033235;28;20178;-68
2022/08/08 03:10:34;;;;;;;9.07;6.10;;;;;;;;;;5033381;28;20293;-68
2022/08/08 03:13:29;;;;;;;7.77;6.70;;;;;;;;;;5031770;28;20583;-68
2022/08/08 03:16:14;;;;;;;9.70;6.40;;;;;;;;;;5031795;28;20174;-68
2022/08/08 03:18:46;;;;;;;10.63;6.40;;;;;;;;;;5032938;28;20595;-68
2022/08/08 03:21:12;;;;;;;8.67;6.20;;;;;;;;;;5031743;28;20183;-68
2022/08/08 03:23:38;;;;;;;7.43;6.47;;;;;;;;;;5031821;28;20583;-68
2022/08/08 03:26:04;;;;;;;7.20;6.50;;;;;;;;;;5031648;28;20651;-68
2022/08/08 03:28:32;;;;;;;8.17;6.30;;;;;;;;;;5036025;28;20240;-68
2022/08/08 03:30:58;;;;;;;9.17;6.53;;;;;;;;;;5035397;28;20687;-68
2022/08/08 03:33:24;;;;;;;7.67;6.47;;;;;;;;;;5035348;28;20194;-68
2022/08/08 03:35:51;;;;;;;9.87;7.07;;;;;;;;;;5035389;28;20191;-68
2022/08/08 03:38:20;;;;;;;9.67;6.87;;;;;;;;;;5036556;28;20175;-71
2022/08/08 03:40:53;;;;;;;10.53;7.73;;;;;;;;;;5035362;28;20183;-69
2022/08/08 03:43:19;;;;;;;11.70;7.70;;;;;;;;;;5037012;28;20203;-67
2022/08/08 03:45:46;;;;;;;8.80;7.70;;;;;;;;;;5036483;28;20190;-68
2022/08/08 03:48:12;;;;;;;11.30;7.73;;;;;;;;;;5035204;28;20542;-68
2022/08/08 03:50:46;;;;;;;9.93;7.83;;;;;;;;;;5035042;28;20245;-67
2022/08/08 03:53:13;;;;;;;8.87;7.57;;;;;;;;;;5036140;28;20202;-68
2022/08/08 03:55:44;;;;;;;12.40;7.87;;;;;;;;;;5036277;28;20262;-68
2022/08/08 03:58:16;;;;;;;8.87;7.43;;;;;;;;;;5035041;28;20167;-68
2022/08/08 04:03:20;;;;;;;9.77;8.70;;;;;;;;;;5015171;28;20429;-65
2022/08/08 04:05:47;;;;;;;10.47;8.90;;;;;;;;;;4999412;28;20259;-66
2022/08/08 04:08:20;;;;;;;13.37;8.27;;;;;;;;;;5016949;28;20226;-65
2022/08/08 04:10:49;;;;;;;10.93;7.73;;;;;;;;;;5016441;28;20249;-64
2022/08/08 04:13:16;;;;;;;9.83;7.63;;;;;;;;;;4998760;28;20175;-66
2022/08/08 04:15:42;;;;;;;10.23;7.50;;;;;;;;;;5016547;28;20247;-66
2022/08/08 04:18:08;;;;;;;10.70;8.47;;;;;;;;;;4998931;28;20214;-66
2022/08/08 04:20:34;;;;;;;13.80;8.53;;;;;;;;;;4998691;28;20184;-65
2022/08/08 04:23:00;;;;;;;14.90;10.10;;;;;;;;;;4998637;28;20203;-66
2022/08/08 04:25:26;;;;;;;10.90;8.97;;;;;;;;;;4998648;28;20266;-66
2022/08/08 04:27:52;;;;;;;12.47;8.60;;;;;;;;;;5016399;28;20544;-66
2022/08/08 04:30:18;;;;;;;11.03;8.80;;;;;;;;;;5016544;28;20635;-65
2022/08/08 04:32:44;;;;;;;21.67;9.80;;;;;;;;;;5016189;28;20233;-65
2022/08/08 04:35:10;;;;;;;14.40;9.50;;;;;;;;;;4998810;28;20215;-65
2022/08/08 04:37:36;;;;;;;12.17;8.27;;;;;;;;;;5016232;28;20212;-66
2022/08/08 04:40:02;;;;;;;10.07;8.37;;;;;;;;;;4997558;28;20180;-65
2022/08/08 04:42:32;;;;;;;12.40;7.57;;;;;;;;;;5016368;28;20283;-65
2022/08/08 04:44:58;;;;;;;10.23;8.20;;;;;;;;;;5016296;28;20172;-65
2022/08/08 04:47:24;;;;;;;9.67;8.10;;;;;;;;;;4998312;28;20183;-66
2022/08/08 04:49:50;;;;;;;15.30;7.77;;;;;;;;;;5016800;28;20199;-66
2022/08/08 04:52:16;;;;;;;12.47;8.27;;;;;;;;;;5016292;28;20200;-65
2022/08/08 04:54:42;;;;;;;12.10;7.87;;;;;;;;;;5016217;28;20545;-66
2022/08/08 04:57:08;;;;;;;10.63;7.23;;;;;;;;;;5016568;28;20185;-66
2022/08/08 04:59:34;;;;;;;10.20;7.60;;;;;;;;;;4998446;28;20187;-66
2022/08/08 05:02:00;;;;;;;10.90;8.03;;;;;;;;;;5016496;28;20222;-66
2022/08/08 05:04:26;;;;;;;11.47;7.40;;;;;;;;;;5015896;28;20290;-65
2022/08/08 05:06:52;;;;;;;8.20;7.40;;;;;;;;;;5015949;28;20179;-66
2022/08/08 05:09:18;;;;;;;8.37;7.10;;;;;;;;;;5016257;28;20747;-66
2022/08/08 05:11:44;;;;;;;14.77;7.23;;;;;;;;;;4998311;28;20223;-66
2022/08/08 05:14:10;;;;;;;7.37;6.67;;;;;;;;;;5016311;28;20590;-66
2022/08/08 05:16:37;;;;;;;9.57;6.77;;;;;;;;;;4998350;28;20663;-65
2022/08/08 05:19:03;;;;;;;8.60;7.00;;;;;;;;;;4998686;28;20184;-66
2022/08/08 05:21:29;;;;;;;9.17;7.13;;;;;;;;;;5016358;28;20718;-66
2022/08/08 05:23:56;;;;;;;7.53;6.70;;;;;;;;;;5016174;28;20270;-66
2022/08/08 05:26:22;;;;;;;9.83;7.57;;;;;;;;;;5016400;28;20301;-66
2022/08/08 05:28:48;;;;;;;9.23;7.07;;;;;;;;;;4998830;28;20217;-66
2022/08/08 05:31:14;;;;;;;10.27;7.17;;;;;;;;;;5016223;28;20227;-67
2022/08/08 05:33:40;;;;;;;14.10;7.30;;;;;;;;;;4998461;28;20211;-66
2022/08/08 05:36:07;;;;;;;13.57;8.53;;;;;;;;;;5016545;28;20219;-67
2022/08/08 05:38:35;;;;;;;15.33;8.57;;;;;;;;;;4998123;28;20179;-66
2022/08/08 05:41:03;;;;;;;21.57;10.53;;;;;;;;;;4997848;28;20187;-66
2022/08/08 05:43:30;;;;;;;15.10;10.13;;;;;;;;;;5015909;28;20180;-66
2022/08/08 05:45:57;;;;;;;21.37;10.43;;;;;;;;;;5015675;28;20751;-66
2022/08/08 05:48:24;;;;;;;20.20;10.40;;;;;;;;;;5015675;28;20649;-65
2022/08/08 05:50:50;;;;;;;17.73;11.27;;;;;;;;;;5014974;28;20573;-66
2022/08/08 05:53:27;;;;;;;19.57;11.63;;;;;;;;;;5015067;28;20176;-66
2022/08/08 05:55:54;;;;;;;27.40;11.73;;;;;;;;;;4998003;28;20218;-66
2022/08/08 05:58:20;;;;;;;20.17;11.23;;;;;;;;;;5016492;28;20299;-66
2022/08/08 06:00:48;;;;;;;13.43;9.37;;;;;;;;;;4997858;28;20566;-66
2022/08/08 06:03:15;;;;;;;15.00;9.97;;;;;;;;;;4997926;28;20203;-66
2022/08/08 06:05:52;;;;;;;16.53;9.80;;;;;;;;;;4997790;28;20184;-66
2022/08/08 06:08:25;;;;;;;21.93;12.20;;;;;;;;;;5015141;28;20258;-66
2022/08/08 06:10:53;;;;;;;15.50;11.10;;;;;;;;;;5015356;28;20649;-66
2022/08/08 06:13:19;;;;;;;17.97;10.97;;;;;;;;;;4997834;28;20210;-66
2022/08/08 06:15:48;;;;;;;15.60;11.10;;;;;;;;;;4997754;28;20714;-66
2022/08/08 06:18:14;;;;;;;16.57;10.73;;;;;;;;;;5014830;28;20184;-66
2022/08/08 06:20:40;;;;;;;15.07;9.90;;;;;;;;;;5014908;28;20637;-66
2022/08/08 06:23:06;;;;;;;11.37;8.57;;;;;;;;;;4997436;28;20210;-66
2022/08/08 06:25:35;;;;;;;11.70;7.93;;;;;;;;;;4997411;28;20649;-66
2022/08/08 06:28:03;;;;;;;10.17;7.53;;;;;;;;;;5015045;28;20550;-66
2022/08/08 06:30:29;;;;;;;9.90;8.33;;;;;;;;;;5015181;28;20211;-66
2022/08/08 06:32:57;;;;;;;10.70;8.20;;;;;;;;;;4997670;28;20200;-66
2022/08/08 06:35:23;;;;;;;9.30;7.80;;;;;;;;;;4997860;28;20224;-65
2022/08/08 06:37:53;;;;;;;10.43;7.80;;;;;;;;;;5015944;28;20203;-66
2022/08/08 06:40:22;;;;;;;12.17;8.23;;;;;;;;;;4998657;28;20184;-66
2022/08/08 06:42:54;;;;;;;9.63;7.87;;;;;;;;;;4997652;28;20203;-66
2022/08/08 06:45:22;;;;;;;10.53;8.77;;;;;;;;;;5015311;28;20191;-66
2022/08/08 06:47:48;;;;;;;10.10;8.20;;;;;;;;;;5015203;28;20200;-66
2022/08/08 06:50:14;;;;;;;12.13;8.17;;;;;;;;;;5014892;28;20629;-66
2022/08/08 06:52:41;;;;;;;12.60;8.23;;;;;;;;;;5014750;28;20698;-66
2022/08/08 06:55:07;;;;;;;8.10;7.27;;;;;;;;;;5015418;28;20178;-66
2022/08/08 06:57:33;;;;;;;9.53;7.90;;;;;;;;;;5014953;28;20183;-66
2022/08/08 06:59:59;;;;;;;10.37;7.53;;;;;;;;;;5015807;28;20186;-65
2022/08/08 07:02:27;;;;;;;9.53;7.13;;;;;;;;;;4999132;28;20219;-66
2022/08/08 07:04:55;;;;;;;8.60;6.93;;;;;;;;;;5019407;28;20176;-66
2022/08/08 07:07:26;;;;;;;9.67;7.03;;;;;;;;;;5019211;28;20180;-65
2022/08/08 07:09:55;;;;;;;7.93;7.13;;;;;;;;;;5019535;28;20218;-66
2022/08/08 07:12:27;;;;;;;11.13;8.07;;;;;;;;;;5001474;28;20290;-65
2022/08/08 07:15:01;;;;;;;10.23;7.37;;;;;;;;;;5019408;28;20195;-65
2022/08/08 07:17:29;;;;;;;13.23;7.10;;;;;;;;;;5018895;28;20168;-65
2022/08/08 07:20:01;;;;;;;14.70;8.47;;;;;;;;;;5001721;28;20183;-65
2022/08/08 07:22:33;;;;;;;11.83;8.33;;;;;;;;;;5019152;28;20199;-64
2022/08/08 07:25:02;;;;;;;13.67;8.13;;;;;;;;;;5019323;28;20275;-67
2022/08/08 07:27:40;;;;;;;16.50;7.20;;;;;;;;;;5018502;28;20203;-67
2022/08/08 07:30:07;;;;;;;11.63;7.30;;;;;;;;;;5018821;28;20249;-68
2022/08/08 07:32:33;;;;;;;8.60;6.27;;;;;;;;;;5000888;28;20307;-67
2022/08/08 07:35:00;;;;;;;7.73;6.03;;;;;;;;;;5018857;28;20593;-68
2022/08/08 07:37:27;;;;;;;7.83;6.30;;;;;;;;;;5018602;28;20310;-68
2022/08/08 07:39:56;;;;;;;15.53;6.10;;;;;;;;;;5017855;28;20374;-68
2022/08/08 07:42:23;;;;;;;13.50;6.07;;;;;;;;;;5000061;28;20257;-67
2022/08/08 07:44:49;;;;;;;8.47;6.07;;;;;;;;;;5017630;28;20187;-68
2022/08/08 07:47:16;;;;;;;10.40;6.20;;;;;;;;;;5000134;28;20184;-68
2022/08/08 07:49:42;;;;;;;10.30;6.37;;;;;;;;;;5017551;28;20203;-68
2022/08/08 07:52:10;;;;;;;10.00;5.30;;;;;;;;;;5017511;28;20682;-68
2022/08/08 07:54:45;;;;;;;7.83;5.50;;;;;;;;;;5017197;28;20183;-68
2022/08/08 07:57:25;;;;;;;6.93;5.80;;;;;;;;;;4999448;28;20210;-68
2022/08/08 08:00:04;;;;;;;6.57;5.67;;;;;;;;;;4999237;28;20179;-67
2022/08/08 08:02:42;;;;;;;7.00;5.87;;;;;;;;;;5016885;28;20211;-68
2022/08/08 08:05:15;;;;;;;6.20;5.50;;;;;;;;;;5017402;28;20211;-68
2022/08/08 08:07:41;;;;;;;6.83;5.23;;;;;;;;;;4999419;28;20183;-68
2022/08/08 08:10:08;;;;;;;7.37;5.90;;;;;;;;;;4999369;28;20219;-68
2022/08/08 08:12:37;;;;;;;8.33;5.93;;;;;;;;;;5016690;28;20199;-68
2022/08/08 08:15:05;;;;;;;11.03;5.37;;;;;;;;;;4999462;28;20183;-68
2022/08/08 08:17:31;;;;;;;8.03;5.40;;;;;;;;;;5017257;28;20262;-68
2022/08/08 08:19:58;;;;;;;7.63;5.53;;;;;;;;;;4999543;28;20644;-67
2022/08/08 08:22:24;;;;;;;6.50;5.80;;;;;;;;;;4999836;28;20207;-68
2022/08/08 08:24:50;;;;;;;6.10;5.27;;;;;;;;;;5017254;28;20637;-68
2022/08/08 08:27:18;;;;;;;11.63;5.63;;;;;;;;;;5017042;28;20258;-68
2022/08/08 08:29:44;;;;;;;7.33;5.33;;;;;;;;;;4999626;28;20250;-68
2022/08/08 08:32:10;;;;;;;9.70;5.20;;;;;;;;;;4999342;28;20204;-68
2022/08/08 08:34:36;;;;;;;5.97;4.80;;;;;;;;;;5016884;28;20595;-68
2022/08/08 08:37:03;;;;;;;7.10;5.20;;;;;;;;;;5016619;28;20187;-68
2022/08/08 08:39:29;;;;;;;4.73;4.23;;;;;;;;;;5017330;28;20172;-68
2022/08/08 08:41:55;;;;;;;5.80;4.60;;;;;;;;;;5016902;28;20563;-67
2022/08/08 08:44:22;;;;;;;4.83;4.17;;;;;;;;;;4999108;28;20215;-69
2022/08/08 08:46:48;;;;;;;6.37;4.23;;;;;;;;;;5016377;28;20655;-68
2022/08/08 08:49:14;;;;;;;8.63;4.97;;;;;;;;;;5016556;28;20180;-68
2022/08/08 08:51:41;;;;;;;7.33;5.10;;;;;;;;;;5016379;28;20242;-68
2022/08/08 08:54:09;;;;;;;6.57;5.03;;;;;;;;;;4998624;28;20191;-68
2022/08/08 08:56:36;;;;;;;8.50;5.43;;;;;;;;;;5016279;28;20711;-68
2022/08/08 08:59:03;;;;;;;6.33;5.10;;;;;;;;;;5015988;28;20191;-68
2022/08/08 09:01:41;;;;;;;10.30;5.40;;;;;;;;;;5015821;28;20210;-68
2022/08/08 09:04:13;;;;;;;5.90;5.10;;;;;;;;;;4998634;28;20179;-68
2022/08/08 09:06:40;;;;;;;5.13;4.63;;;;;;;;;;5016471;28;20160;-68
2022/08/08 09:09:13;;;;;;;4.97;4.50;;;;;;;;;;5016253;28;20214;-68
2022/08/08 09:11:42;;;;;;;6.77;4.20;;;;;;;;;;5016958;28;20211;-67
2022/08/08 09:14:08;;;;;;;6.37;4.37;;;;;;;;;;4998941;28;20575;-68
2022/08/08 09:16:34;;;;;;;6.60;4.60;;;;;;;;;;5016259;28;20212;-68
2022/08/08 09:19:01;;;;;;;7.13;4.53;;;;;;;;;;4998744;28;20179;-68
2022/08/08 09:21:28;;;;;;;6.60;4.57;;;;;;;;;;5016302;28;20199;-68
2022/08/08 09:23:54;;;;;;;5.90;4.00;;;;;;;;;;5015553;28;20184;-69
2022/08/08 09:26:20;;;;;;;6.93;5.00;;;;;;;;;;5015802;28;20180;-69
2022/08/08 09:28:46;;;;;;;6.47;4.67;;;;;;;;;;5015599;28;20184;-67
2022/08/08 09:31:14;;;;;;;10.30;4.73;;;;;;;;;;4997663;28;20566;-67
2022/08/08 09:33:43;;;;;;;7.50;4.50;;;;;;;;;;5015521;28;20522;-66
2022/08/08 09:36:14;;;;;;;4.97;4.43;;;;;;;;;;4997907;28;20191;-66
2022/08/08 09:38:51;;;;;;;5.80;4.63;;;;;;;;;;5015913;28;20235;-66
2022/08/08 09:41:20;;;;;;;10.17;4.40;;;;;;;;;;4997716;28;20700;-67
2022/08/08 09:43:50;;;;;;;5.37;3.80;;;;;;;;;;4998063;28;20187;-67
2022/08/08 09:46:16;;;;;;;8.43;4.23;;;;;;;;;;5015084;28;20325;-68
2022/08/08 09:48:44;;;;;;;5.97;4.10;;;;;;;;;;5015214;28;20176;-67
2022/08/08 09:51:11;;;;;;;7.80;5.23;;;;;;;;;;4997175;28;20211;-67
2022/08/08 09:53:41;;;;;;;4.97;4.47;;;;;;;;;;5014769;28;20644;-67
2022/08/08 09:56:10;;;;;;;6.13;4.70;;;;;;;;;;5015267;28;20584;-67
2022/08/08 09:58:40;;;;;;;6.27;4.80;;;;;;;;;;5015591;28;20719;-65
2022/08/08 10:01:07;;;;;;;6.50;4.17;;;;;;;;;;4997184;28;20268;-67
2022/08/08 10:03:34;;;;;;;4.90;4.40;;;;;;;;;;4996941;28;20191;-69
2022/08/08 10:06:00;;;;;;;5.23;4.27;;;;;;;;;;4996959;28;20183;-67
2022/08/08 10:08:31;;;;;;;5.47;4.33;;;;;;;;;;5014643;28;20179;-68
2022/08/08 10:10:58;;;;;;;7.17;3.77;;;;;;;;;;5014561;28;20238;-67
2022/08/08 10:13:25;;;;;;;4.67;4.27;;;;;;;;;;5014846;28;20180;-67
2022/08/08 10:15:53;;;;;;;6.17;4.13;;;;;;;;;;4998201;28;20187;-68
2022/08/08 10:18:29;;;;;;;6.50;3.87;;;;;;;;;;5014512;28;20176;-67
2022/08/08 10:21:16;;;;;;;4.47;4.07;;;;;;;;;;4996559;28;20557;-67
2022/08/08 10:23:44;;;;;;;8.40;4.80;;;;;;;;;;5014733;28;20172;-67
2022/08/08 10:26:15;;;;;;;5.60;4.50;;;;;;;;;;5014710;28;20187;-66
2022/08/08 10:28:45;;;;;;;6.73;4.47;;;;;;;;;;5015305;28;20167;-67
2022/08/08 10:33:58;;;;;;;5.50;4.50;;;;;;;;;;5014894;28;20207;-67
2022/08/08 10:36:26;;;;;;;4.37;3.60;;;;;;;;;;5013381;28;20207;-67
2022/08/08 10:38:52;;;;;;;4.27;3.87;;;;;;;;;;5014360;28;20714;-66
2022/08/08 10:41:22;;;;;;;5.13;3.70;;;;;;;;;;4996905;28;20581;-67
2022/08/08 10:43:50;;;;;;;5.13;4.00;;;;;;;;;;5014536;28;20241;-67
2022/08/08 10:46:25;;;;;;;;;;;;;;;;;;4997072;28;20594;-67
2022/08/08 10:48:52;;;;;;;;;;;;;;;;;;5015045;28;19955;-66
2022/08/08 10:51:18;;;;;;;;;;;;;;;;;;5014191;28;19913;-68
2022/08/08 10:53:44;;;;;;;;;;;;;;;;;;5014784;28;19912;-67
2022/08/08 10:56:10;;;;;;;5.33;4.30;;;;;;;;;;5012938;28;20414;-66
2022/08/08 10:58:36;;;;;;;3.90;3.60;;;;;;;;;;4996092;28;20179;-65
2022/08/08 11:01:07;;;;;;;4.00;3.67;;;;;;;;;;5013975;28;20184;-67
2022/08/08 11:03:41;;;;;;;4.20;3.43;;;;;;;;;;5014421;28;20401;-67
2022/08/08 11:06:07;;;;;;;5.30;3.87;;;;;;;;;;4996287;28;20187;-66
2022/08/08 11:08:35;;;;;;;5.67;4.43;;;;;;;;;;5013963;28;20180;-65
2022/08/08 11:11:05;;;;;;;4.53;3.30;;;;;;;;;;4996419;28;20206;-68
2022/08/08 11:13:38;;;;;;;4.53;3.97;;;;;;;;;;5014617;28;20176;-67
2022/08/08 11:16:05;;;;;;;4.00;3.63;;;;;;;;;;4996177;28;20184;-68
2022/08/08 11:18:33;;;;;;;4.90;3.47;;;;;;;;;;5013917;28;20172;-67
2022/08/08 11:21:00;;;;;;;5.67;4.17;;;;;;;;;;5014142;28;20183;-67
2022/08/08 11:23:30;;;;;;;12.07;4.80;;;;;;;;;;5013877;28;20183;-68
2022/08/08 11:25:56;;;;;;;4.83;4.23;;;;;;;;;;5014071;28;20179;-67
2022/08/08 11:28:23;;;;;;;4.40;3.53;;;;;;;;;;4996188;28;20179;-67
2022/08/08 11:30:49;;;;;;;4.80;4.13;;;;;;;;;;5013934;28;20282;-67
2022/08/08 11:33:18;;;;;;;4.37;3.97;;;;;;;;;;4995944;28;20334;-68
2022/08/08 11:35:44;;;;;;;3.83;3.37;;;;;;;;;;4996149;28;20565;-67
2022/08/08 11:38:12;;;;;;;4.37;3.80;;;;;;;;;;5015282;28;20176;-68
2022/08/08 11:40:39;;;;;;;6.67;3.80;;;;;;;;;;5014217;28;20558;-68
2022/08/08 11:43:06;;;;;;;4.57;3.70;;;;;;;;;;5014080;28;20227;-68
2022/08/08 11:45:32;;;;;;;3.77;3.47;;;;;;;;;;5013766;28;20172;-67
2022/08/08 11:47:58;;;;;;;4.40;3.90;;;;;;;;;;5014530;28;20182;-68
2022/08/08 11:50:24;;;;;;;7.53;4.00;;;;;;;;;;5017366;28;20703;-67
2022/08/08 11:52:51;;;;;;;4.63;3.97;;;;;;;;;;5017067;28;20231;-67
2022/08/08 11:55:18;;;;;;;4.50;4.10;;;;;;;;;;5017115;28;20214;-69
2022/08/08 11:57:44;;;;;;;4.00;3.57;;;;;;;;;;4999374;28;20193;-69
2022/08/08 12:00:15;;;;;;;5.27;3.70;;;;;;;;;;4999220;28;20187;-68
2022/08/08 12:02:46;;;;;;;4.37;3.67;;;;;;;;;;4998960;28;20251;-68
2022/08/08 12:05:12;;;;;;;5.23;3.40;;;;;;;;;;4998758;28;20607;-68
2022/08/08 12:07:45;;;;;;;4.27;3.20;;;;;;;;;;4999280;28;20274;-68
2022/08/08 12:10:21;;;;;;;5.03;3.77;;;;;;;;;;5017050;28;20196;-68
2022/08/08 12:12:48;;;;;;;4.10;3.20;;;;;;;;;;5016663;28;20215;-68
2022/08/08 12:15:25;;;;;;;4.33;3.60;;;;;;;;;;4999107;28;20604;-69
2022/08/08 12:17:51;;;;;;;4.40;3.20;;;;;;;;;;5016929;28;20160;-68
2022/08/08 12:20:17;;;;;;;4.73;3.50;;;;;;;;;;4998932;28;20183;-68
2022/08/08 12:22:48;;;;;;;4.77;3.80;;;;;;;;;;4999177;28;20203;-69
2022/08/08 12:25:27;;;;;;;4.17;2.90;;;;;;;;;;5016654;28;20175;-69
2022/08/08 12:28:06;;;;;;;3.93;3.00;;;;;;;;;;5016447;28;20267;-68
2022/08/08 12:30:32;;;;;;;6.77;3.53;;;;;;;;;;5016308;28;20749;-68
2022/08/08 12:33:01;;;;;;;3.57;3.27;;;;;;;;;;4998541;28;20203;-68
2022/08/08 12:35:32;;;;;;;3.63;3.17;;;;;;;;;;5016452;28;20589;-69
2022/08/08 12:38:04;;;;;;;2.83;2.63;;;;;;;;;;4998634;28;20251;-68
2022/08/08 12:40:41;;;;;;;4.27;3.77;;;;;;;;;;5016614;28;20156;-69
2022/08/08 12:43:07;;;;;;;7.57;3.20;;;;;;;;;;4998985;28;20628;-69
2022/08/08 12:45:34;;;;;;;3.43;2.97;;;;;;;;;;5016425;28;20184;-69
2022/08/08 12:48:01;;;;;;;3.17;2.80;;;;;;;;;;5016033;28;20611;-69
2022/08/08 12:50:37;;;;;;;3.37;2.70;;;;;;;;;;4998456;28;20228;-68
2022/08/08 12:53:03;;;;;;;2.90;2.70;;;;;;;;;;5016380;28;20199;-71
2022/08/08 12:55:29;;;;;;;3.30;3.00;;;;;;;;;;5016331;28;20539;-71
2022/08/08 12:57:55;;;;;;;3.03;2.83;;;;;;;;;;5016111;28;20640;-71
2022/08/08 13:00:27;;;;;;;2.60;2.30;;;;;;;;;;4997572;28;20721;-71
2022/08/08 13:02:57;;;;;;;2.87;2.50;;;;;;;;;;5015818;28;20298;-71
2022/08/08 13:05:23;;;;;;;5.70;3.27;;;;;;;;;;5016060;28;20180;-70
2022/08/08 13:07:49;;;;;;;2.60;2.40;;;;;;;;;;5015794;28;20180;-70
2022/08/08 13:10:15;;;;;;;3.27;2.23;;;;;;;;;;4998319;28;20582;-70
2022/08/08 13:12:42;;;;;;;3.60;2.63;;;;;;;;;;5015883;28;20200;-70
2022/08/08 13:15:10;;;;;;;3.23;3.00;;;;;;;;;;5015629;28;20176;-70
2022/08/08 13:17:37;;;;;;;3.33;2.40;;;;;;;;;;4998343;28;20180;-70
2022/08/08 13:20:05;;;;;;;5.27;2.57;;;;;;;;;;5016039;28;20180;-70
2022/08/08 13:22:35;;;;;;;5.17;2.70;;;;;;;;;;5015881;28;20706;-70
2022/08/08 13:25:01;;;;;;;2.60;2.40;;;;;;;;;;5015698;28;20207;-70
2022/08/08 13:27:28;;;;;;;3.17;2.23;;;;;;;;;;5016128;28;20179;-70
2022/08/08 13:30:01;;;;;;;3.87;2.40;;;;;;;;;;4998161;28;20290;-70
2022/08/08 13:32:29;;;;;;;3.80;2.43;;;;;;;;;;5015568;28;20253;-69
2022/08/08 13:34:58;;;;;;;3.50;2.40;;;;;;;;;;5015370;28;20179;-70
2022/08/08 13:37:25;;;;;;;3.07;2.30;;;;;;;;;;5015639;28;20203;-69
2022/08/08 13:39:52;;;;;;;4.03;2.50;;;;;;;;;;5015646;28;20184;-70
2022/08/08 13:42:18;;;;;;;3.80;2.50;;;;;;;;;;5015255;28;20204;-69
2022/08/08 13:44:45;;;;;;;2.17;2.00;;;;;;;;;;4997784;28;20184;-70
2022/08/08 13:47:15;;;;;;;3.17;2.23;;;;;;;;;;5014987;28;20226;-69
2022/08/08 13:49:41;;;;;;;3.07;2.30;;;;;;;;;;5015544;28;20176;-69
2022/08/08 13:52:09;;;;;;;2.83;2.40;;;;;;;;;;5015036;28;20192;-69
2022/08/08 13:54:36;;;;;;;2.43;2.23;;;;;;;;;;5015557;28;20262;-69
2022/08/08 13:57:02;;;;;;;2.80;2.43;;;;;;;;;;4997538;28;20175;-69
2022/08/08 13:59:47;;;;;;;3.43;2.03;;;;;;;;;;5015368;28;20226;-69
2022/08/08 14:02:16;;;;;;;4.33;2.47;;;;;;;;;;5014791;28;20298;-69
2022/08/08 14:04:52;;;;;;;2.37;1.90;;;;;;;;;;4997419;28;20184;-69
2022/08/08 14:07:20;;;;;;;2.83;2.13;;;;;;;;;;5015186;28;20180;-70
2022/08/08 14:09:46;;;;;;;3.13;2.83;;;;;;;;;;5015113;28;20168;-69
2022/08/08 14:12:14;;;;;;;5.57;3.47;;;;;;;;;;5015088;28;20684;-70
2022/08/08 14:14:41;;;;;;;11.73;8.63;;;;;;;;;;5015422;28;20171;-69
2022/08/08 14:17:08;;;;;;;5.97;2.45;;;;;;;;;;5014744;28;20184;-70
2022/08/08 14:19:40;;;;;;;2.47;2.28;;;;;;;;;;5014875;28;20179;-67
2022/08/08 14:22:23;;;;;;;3.13;2.67;;;;;;;;;;5014464;28;20255;-70
2022/08/08 14:25:00;;;;;;;2.35;2.15;;;;;;;;;;5015261;28;20175;-70
2022/08/08 14:27:27;;;;;;;3.08;2.17;;;;;;;;;;5015041;28;20175;-70
2022/08/08 14:29:55;;;;;;;2.88;2.08;;;;;;;;;;4997023;28;20234;-69
2022/08/08 14:32:21;;;;;;;2.97;2.67;;;;;;;;;;5014586;28;20242;-71
2022/08/08 14:34:50;;;;;;;5.60;2.90;;;;;;;;;;5014710;28;20176;-69
2022/08/08 14:37:17;;;;;;;2.63;2.42;;;;;;;;;;5014610;28;20206;-67
2022/08/08 14:39:48;;;;;;;3.22;2.20;;;;;;;;;;5014468;28;20233;-70
2022/08/08 14:42:14;;;;;;;2.60;2.40;;;;;;;;;;5014670;28;20187;-70
2022/08/08 14:44:40;;;;;;;3.67;2.40;;;;;;;;;;5014907;28;20182;-71
2022/08/08 14:47:10;;;;;;;2.40;2.20;;;;;;;;;;5016596;28;20238;-71
2022/08/08 14:49:36;;;;;;;2.97;1.90;;;;;;;;;;4996727;28;20186;-70
2022/08/08 14:52:08;;;;;;;2.53;2.03;;;;;;;;;;5014478;28;20270;-71
2022/08/08 14:54:44;;;;;;;2.30;2.10;;;;;;;;;;4996470;28;20188;-70
2022/08/08 14:57:10;;;;;;;3.20;2.22;;;;;;;;;;5014530;28;20179;-70
2022/08/08 14:59:35;;;;;;;4.72;2.00;;;;;;;;;;5014301;28;20175;-70
2022/08/08 15:02:04;;;;;;;4.22;2.60;;;;;;;;;;5013863;28;20215;-70
2022/08/08 15:04:30;;;;;;;2.55;2.17;;;;;;;;;;4996459;28;20210;-70
2022/08/08 15:06:56;;;;;;;2.72;2.30;;;;;;;;;;5014175;28;20178;-70